sensor_id;sensor_type;location;lat;lon;timestamp;P1;durP1;ratioP1;P2;durP2;ratioP2
41887;SDS011;63122;52.424;13.458;2022-09-13T00:01:13;4.78;;;3.40;;
41887;SDS011;63122;52.424;13.458;2022-09-13T00:03:46;3.55;;;3.25;;
41887;SDS011;63122;52.424;13.458;2022-09-13T00:06:17;8.18;;;3.42;;
41887;SDS011;63122;52.424;13.458;2022-09-13T00:08:52;5.93;;;3.83;;
41887;SDS011;63122;52.424;13.458;2022-09-13T00:11:24;3.75;;;3.45;;
41887;SDS011;63122;52.424;13.458;2022-09-13T00:13:58;9.07;;;3.83;;
41887;SDS011;63122;52.424;13.458;2022-09-13T00:16:30;6.82;;;3.85;;
41887;SDS011;63122;52.424;13.458;2022-09-13T00:19:02;4.22;;;3.83;;
41887;SDS011;63122;52.424;13.458;2022-09-13T00:21:34;4.05;;;3.50;;
41887;SDS011;63122;52.424;13.458;2022-09-13T00:24:08;4.07;;;3.47;;
41887;SDS011;63122;52.424;13.458;2022-09-13T00:26:40;5.82;;;3.67;;
41887;SDS011;63122;52.424;13.458;2022-09-13T00:29:11;6.85;;;3.63;;
41887;SDS011;63122;52.424;13.458;2022-09-13T00:31:41;5.60;;;4.10;;
41887;SDS011;63122;52.424;13.458;2022-09-13T00:34:12;5.45;;;3.85;;
41887;SDS011;63122;52.424;13.458;2022-09-13T00:36:41;4.47;;;3.60;;
41887;SDS011;63122;52.424;13.458;2022-09-13T00:39:14;4.25;;;3.65;;
41887;SDS011;63122;52.424;13.458;2022-09-13T00:41:44;6.38;;;4.45;;
41887;SDS011;63122;52.424;13.458;2022-09-13T00:47:16;5.60;;;3.70;;
41887;SDS011;63122;52.424;13.458;2022-09-13T00:49:50;4.70;;;3.70;;
41887;SDS011;63122;52.424;13.458;2022-09-13T00:52:25;4.30;;;3.25;;
41887;SDS011;63122;52.424;13.458;2022-09-13T00:55:04;4.22;;;3.50;;
41887;SDS011;63122;52.424;13.458;2022-09-13T00:57:40;6.13;;;3.45;;
41887;SDS011;63122;52.424;13.458;2022-09-13T01:00:12;4.80;;;3.50;;
41887;SDS011;63122;52.424;13.458;2022-09-13T01:02:46;3.90;;;3.20;;
41887;SDS011;63122;52.424;13.458;2022-09-13T01:05:20;6.03;;;3.20;;
41887;SDS011;63122;52.424;13.458;2022-09-13T01:07:53;4.47;;;3.50;;
41887;SDS011;63122;52.424;13.458;2022-09-13T01:10:28;3.88;;;3.35;;
41887;SDS011;63122;52.424;13.458;2022-09-13T01:13:03;7.72;;;3.42;;
41887;SDS011;63122;52.424;13.458;2022-09-13T01:15:40;6.43;;;3.45;;
41887;SDS011;63122;52.424;13.458;2022-09-13T01:18:11;6.85;;;3.50;;
41887;SDS011;63122;52.424;13.458;2022-09-13T01:20:45;4.20;;;3.40;;
41887;SDS011;63122;52.424;13.458;2022-09-13T01:23:39;3.72;;;3.33;;
41887;SDS011;63122;52.424;13.458;2022-09-13T01:29:29;3.50;;;3.20;;
41887;SDS011;63122;52.424;13.458;2022-09-13T01:32:16;6.53;;;3.45;;
41887;SDS011;63122;52.424;13.458;2022-09-13T01:34:55;8.73;;;3.47;;
41887;SDS011;63122;52.424;13.458;2022-09-13T01:37:40;4.15;;;2.92;;
41887;SDS011;63122;52.424;13.458;2022-09-13T01:40:16;4.53;;;3.30;;
41887;SDS011;63122;52.424;13.458;2022-09-13T01:43:03;4.68;;;3.45;;
41887;SDS011;63122;52.424;13.458;2022-09-13T01:45:44;3.85;;;3.45;;
41887;SDS011;63122;52.424;13.458;2022-09-13T01:48:26;3.50;;;3.20;;
41887;SDS011;63122;52.424;13.458;2022-09-13T01:51:06;3.63;;;3.33;;
41887;SDS011;63122;52.424;13.458;2022-09-13T01:53:42;7.70;;;3.60;;
41887;SDS011;63122;52.424;13.458;2022-09-13T01:56:19;4.35;;;3.60;;
41887;SDS011;63122;52.424;13.458;2022-09-13T01:58:55;4.40;;;3.67;;
41887;SDS011;63122;52.424;13.458;2022-09-13T02:07:33;3.50;;;3.20;;
41887;SDS011;63122;52.424;13.458;2022-09-13T02:10:08;4.47;;;3.63;;
41887;SDS011;63122;52.424;13.458;2022-09-13T02:12:41;6.15;;;3.40;;
41887;SDS011;63122;52.424;13.458;2022-09-13T02:15:13;4.20;;;3.50;;
41887;SDS011;63122;52.424;13.458;2022-09-13T02:17:46;5.00;;;3.40;;
41887;SDS011;63122;52.424;13.458;2022-09-13T02:20:21;9.00;;;3.55;;
41887;SDS011;63122;52.424;13.458;2022-09-13T02:23:00;4.13;;;3.42;;
41887;SDS011;63122;52.424;13.458;2022-09-13T02:25:34;7.60;;;3.58;;
41887;SDS011;63122;52.424;13.458;2022-09-13T02:28:08;5.53;;;3.30;;
41887;SDS011;63122;52.424;13.458;2022-09-13T02:30:42;4.50;;;3.40;;
41887;SDS011;63122;52.424;13.458;2022-09-13T02:33:17;7.25;;;3.70;;
41887;SDS011;63122;52.424;13.458;2022-09-13T02:35:54;3.97;;;3.30;;
41887;SDS011;63122;52.424;13.458;2022-09-13T02:38:30;7.68;;;3.70;;
41887;SDS011;63122;52.424;13.458;2022-09-13T02:41:04;5.00;;;3.78;;
41887;SDS011;63122;52.424;13.458;2022-09-13T02:43:43;3.77;;;3.40;;
41887;SDS011;63122;52.424;13.458;2022-09-13T02:46:20;4.22;;;3.70;;
41887;SDS011;63122;52.424;13.458;2022-09-13T02:48:58;4.67;;;3.67;;
41887;SDS011;63122;52.424;13.458;2022-09-13T02:51:38;9.57;;;3.75;;
41887;SDS011;63122;52.424;13.458;2022-09-13T02:54:21;5.25;;;3.45;;
41887;SDS011;63122;52.424;13.458;2022-09-13T02:56:55;3.95;;;3.55;;
41887;SDS011;63122;52.424;13.458;2022-09-13T02:59:29;4.97;;;3.80;;
41887;SDS011;63122;52.424;13.458;2022-09-13T03:02:02;4.60;;;3.33;;
41887;SDS011;63122;52.424;13.458;2022-09-13T03:04:35;4.63;;;3.37;;
41887;SDS011;63122;52.424;13.458;2022-09-13T03:07:08;4.23;;;3.83;;
41887;SDS011;63122;52.424;13.458;2022-09-13T03:09:45;4.60;;;3.90;;
41887;SDS011;63122;52.424;13.458;2022-09-13T03:15:23;6.47;;;4.30;;
41887;SDS011;63122;52.424;13.458;2022-09-13T03:18:03;5.27;;;4.10;;
41887;SDS011;63122;52.424;13.458;2022-09-13T03:20:44;5.23;;;4.17;;
41887;SDS011;63122;52.424;13.458;2022-09-13T03:23:30;5.00;;;4.20;;
41887;SDS011;63122;52.424;13.458;2022-09-13T03:29:24;5.30;;;4.10;;
41887;SDS011;63122;52.424;13.458;2022-09-13T03:32:04;10.13;;;4.30;;
41887;SDS011;63122;52.424;13.458;2022-09-13T03:34:47;6.83;;;4.27;;
41887;SDS011;63122;52.424;13.458;2022-09-13T03:37:22;7.53;;;4.33;;
41887;SDS011;63122;52.424;13.458;2022-09-13T03:39:56;8.57;;;4.60;;
41887;SDS011;63122;52.424;13.458;2022-09-13T03:42:36;5.20;;;4.33;;
41887;SDS011;63122;52.424;13.458;2022-09-13T03:45:13;8.37;;;4.40;;
41887;SDS011;63122;52.424;13.458;2022-09-13T03:47:45;5.10;;;4.60;;
41887;SDS011;63122;52.424;13.458;2022-09-13T03:50:18;13.07;;;4.30;;
41887;SDS011;63122;52.424;13.458;2022-09-13T03:52:51;7.77;;;4.50;;
41887;SDS011;63122;52.424;13.458;2022-09-13T03:55:27;6.20;;;4.67;;
41887;SDS011;63122;52.424;13.458;2022-09-13T03:58:01;5.90;;;4.40;;
41887;SDS011;63122;52.424;13.458;2022-09-13T04:00:31;5.43;;;4.50;;
41887;SDS011;63122;52.424;13.458;2022-09-13T04:03:01;6.50;;;4.67;;
41887;SDS011;63122;52.424;13.458;2022-09-13T04:05:32;6.23;;;4.83;;
41887;SDS011;63122;52.424;13.458;2022-09-13T04:08:02;12.57;;;7.13;;
41887;SDS011;63122;52.424;13.458;2022-09-13T04:10:34;8.60;;;6.00;;
41887;SDS011;63122;52.424;13.458;2022-09-13T04:13:08;11.57;;;5.70;;
41887;SDS011;63122;52.424;13.458;2022-09-13T04:15:38;13.37;;;7.90;;
41887;SDS011;63122;52.424;13.458;2022-09-13T04:18:08;8.20;;;4.73;;
41887;SDS011;63122;52.424;13.458;2022-09-13T04:20:38;7.30;;;5.30;;
41887;SDS011;63122;52.424;13.458;2022-09-13T04:23:08;7.37;;;5.43;;
41887;SDS011;63122;52.424;13.458;2022-09-13T04:25:38;9.77;;;5.50;;
41887;SDS011;63122;52.424;13.458;2022-09-13T04:28:11;6.90;;;5.20;;
41887;SDS011;63122;52.424;13.458;2022-09-13T04:30:42;10.73;;;5.10;;
41887;SDS011;63122;52.424;13.458;2022-09-13T04:33:13;8.93;;;5.17;;
41887;SDS011;63122;52.424;13.458;2022-09-13T04:35:43;10.67;;;6.47;;
41887;SDS011;63122;52.424;13.458;2022-09-13T04:38:45;9.33;;;4.93;;
41887;SDS011;63122;52.424;13.458;2022-09-13T04:41:15;11.20;;;5.50;;
41887;SDS011;63122;52.424;13.458;2022-09-13T04:43:50;6.73;;;5.30;;
41887;SDS011;63122;52.424;13.458;2022-09-13T04:46:19;10.17;;;5.77;;
41887;SDS011;63122;52.424;13.458;2022-09-13T04:48:50;8.13;;;6.70;;
41887;SDS011;63122;52.424;13.458;2022-09-13T04:51:21;6.03;;;5.33;;
41887;SDS011;63122;52.424;13.458;2022-09-13T04:53:51;8.27;;;5.80;;
41887;SDS011;63122;52.424;13.458;2022-09-13T04:56:22;7.67;;;5.40;;
41887;SDS011;63122;52.424;13.458;2022-09-13T04:58:56;13.07;;;5.30;;
41887;SDS011;63122;52.424;13.458;2022-09-13T05:01:26;10.40;;;5.63;;
41887;SDS011;63122;52.424;13.458;2022-09-13T05:03:57;7.30;;;5.60;;
41887;SDS011;63122;52.424;13.458;2022-09-13T05:06:27;8.23;;;5.13;;
41887;SDS011;63122;52.424;13.458;2022-09-13T05:08:56;7.63;;;5.47;;
41887;SDS011;63122;52.424;13.458;2022-09-13T05:11:27;6.20;;;5.57;;
41887;SDS011;63122;52.424;13.458;2022-09-13T05:14:01;6.00;;;5.37;;
41887;SDS011;63122;52.424;13.458;2022-09-13T05:16:32;7.37;;;5.77;;
41887;SDS011;63122;52.424;13.458;2022-09-13T05:19:02;7.27;;;5.43;;
41887;SDS011;63122;52.424;13.458;2022-09-13T05:21:32;12.80;;;6.00;;
41887;SDS011;63122;52.424;13.458;2022-09-13T05:24:02;10.30;;;5.83;;
41887;SDS011;63122;52.424;13.458;2022-09-13T05:26:32;15.07;;;5.73;;
41887;SDS011;63122;52.424;13.458;2022-09-13T05:29:05;7.20;;;5.57;;
41887;SDS011;63122;52.424;13.458;2022-09-13T05:31:36;5.93;;;5.33;;
41887;SDS011;63122;52.424;13.458;2022-09-13T05:34:08;13.70;;;5.90;;
41887;SDS011;63122;52.424;13.458;2022-09-13T05:36:40;7.30;;;6.30;;
41887;SDS011;63122;52.424;13.458;2022-09-13T05:39:11;9.23;;;6.13;;
41887;SDS011;63122;52.424;13.458;2022-09-13T05:42:03;9.30;;;6.60;;
41887;SDS011;63122;52.424;13.458;2022-09-13T05:44:36;14.77;;;7.00;;
41887;SDS011;63122;52.424;13.458;2022-09-13T05:47:06;9.87;;;6.33;;
41887;SDS011;63122;52.424;13.458;2022-09-13T05:49:36;7.27;;;6.23;;
41887;SDS011;63122;52.424;13.458;2022-09-13T05:52:26;8.17;;;6.57;;
41887;SDS011;63122;52.424;13.458;2022-09-13T05:54:57;7.73;;;6.33;;
41887;SDS011;63122;52.424;13.458;2022-09-13T05:57:26;8.13;;;6.53;;
41887;SDS011;63122;52.424;13.458;2022-09-13T05:59:59;7.33;;;6.60;;
41887;SDS011;63122;52.424;13.458;2022-09-13T06:02:29;15.77;;;7.37;;
41887;SDS011;63122;52.424;13.458;2022-09-13T06:04:59;11.67;;;7.47;;
41887;SDS011;63122;52.424;13.458;2022-09-13T06:07:29;12.73;;;8.03;;
41887;SDS011;63122;52.424;13.458;2022-09-13T06:09:59;10.60;;;8.10;;
41887;SDS011;63122;52.424;13.458;2022-09-13T06:12:29;11.93;;;8.07;;
41887;SDS011;63122;52.424;13.458;2022-09-13T06:15:02;13.87;;;8.10;;
41887;SDS011;63122;52.424;13.458;2022-09-13T06:21:12;12.27;;;7.83;;
41887;SDS011;63122;52.424;13.458;2022-09-13T06:23:45;9.10;;;8.00;;
41887;SDS011;63122;52.424;13.458;2022-09-13T06:26:17;12.67;;;7.87;;
41887;SDS011;63122;52.424;13.458;2022-09-13T06:28:49;9.17;;;7.83;;
41887;SDS011;63122;52.424;13.458;2022-09-13T06:31:24;10.23;;;7.23;;
41887;SDS011;63122;52.424;13.458;2022-09-13T06:33:56;10.37;;;8.10;;
41887;SDS011;63122;52.424;13.458;2022-09-13T06:36:28;11.67;;;8.60;;
41887;SDS011;63122;52.424;13.458;2022-09-13T06:38:58;15.33;;;8.43;;
41887;SDS011;63122;52.424;13.458;2022-09-13T06:41:30;19.30;;;8.90;;
41887;SDS011;63122;52.424;13.458;2022-09-13T06:44:00;9.73;;;8.47;;
41887;SDS011;63122;52.424;13.458;2022-09-13T06:46:33;10.67;;;9.07;;
41887;SDS011;63122;52.424;13.458;2022-09-13T06:49:05;11.53;;;8.67;;
41887;SDS011;63122;52.424;13.458;2022-09-13T06:51:36;12.07;;;8.47;;
41887;SDS011;63122;52.424;13.458;2022-09-13T06:54:06;11.93;;;8.93;;
41887;SDS011;63122;52.424;13.458;2022-09-13T06:59:47;10.87;;;8.40;;
41887;SDS011;63122;52.424;13.458;2022-09-13T07:02:21;15.70;;;8.83;;
41887;SDS011;63122;52.424;13.458;2022-09-13T07:04:52;16.50;;;9.50;;
41887;SDS011;63122;52.424;13.458;2022-09-13T07:07:22;10.70;;;8.17;;
41887;SDS011;63122;52.424;13.458;2022-09-13T07:09:58;10.83;;;8.93;;
41887;SDS011;63122;52.424;13.458;2022-09-13T07:13:24;13.73;;;9.77;;
41887;SDS011;63122;52.424;13.458;2022-09-13T07:15:54;12.07;;;9.03;;
41887;SDS011;63122;52.424;13.458;2022-09-13T07:18:26;14.07;;;8.87;;
41887;SDS011;63122;52.424;13.458;2022-09-13T07:21:00;16.10;;;9.33;;
41887;SDS011;63122;52.424;13.458;2022-09-13T07:23:32;11.00;;;8.87;;
41887;SDS011;63122;52.424;13.458;2022-09-13T07:26:04;11.87;;;8.97;;
41887;SDS011;63122;52.424;13.458;2022-09-13T07:28:36;12.87;;;8.93;;
41887;SDS011;63122;52.424;13.458;2022-09-13T07:31:08;13.77;;;9.57;;
41887;SDS011;63122;52.424;13.458;2022-09-13T07:33:42;16.70;;;9.03;;
41887;SDS011;63122;52.424;13.458;2022-09-13T07:36:14;13.90;;;8.83;;
41887;SDS011;63122;52.424;13.458;2022-09-13T07:38:43;14.48;;;9.02;;
41887;SDS011;63122;52.424;13.458;2022-09-13T07:41:14;11.40;;;9.67;;
41887;SDS011;63122;52.424;13.458;2022-09-13T07:43:46;13.60;;;9.83;;
41887;SDS011;63122;52.424;13.458;2022-09-13T07:46:18;17.60;;;9.77;;
41887;SDS011;63122;52.424;13.458;2022-09-13T07:52:32;13.17;;;10.33;;
41887;SDS011;63122;52.424;13.458;2022-09-13T07:55:04;14.02;;;10.70;;
41887;SDS011;63122;52.424;13.458;2022-09-13T07:57:34;14.13;;;9.40;;
41887;SDS011;63122;52.424;13.458;2022-09-13T08:00:05;13.60;;;9.45;;
41887;SDS011;63122;52.424;13.458;2022-09-13T08:02:37;11.65;;;9.50;;
41887;SDS011;63122;52.424;13.458;2022-09-13T08:05:07;15.75;;;9.70;;
41887;SDS011;63122;52.424;13.458;2022-09-13T08:07:40;12.82;;;9.43;;
41887;SDS011;63122;52.424;13.458;2022-09-13T08:10:10;14.13;;;9.48;;
41887;SDS011;63122;52.424;13.458;2022-09-13T08:12:40;17.20;;;10.23;;
41887;SDS011;63122;52.424;13.458;2022-09-13T08:15:10;13.48;;;9.85;;
41887;SDS011;63122;52.424;13.458;2022-09-13T08:17:41;14.40;;;10.00;;
41887;SDS011;63122;52.424;13.458;2022-09-13T08:20:10;12.50;;;9.73;;
41887;SDS011;63122;52.424;13.458;2022-09-13T08:22:43;13.10;;;10.23;;
41887;SDS011;63122;52.424;13.458;2022-09-13T08:25:14;16.05;;;9.73;;
41887;SDS011;63122;52.424;13.458;2022-09-13T08:27:44;17.35;;;11.20;;
41887;SDS011;63122;52.424;13.458;2022-09-13T08:30:17;15.40;;;10.85;;
41887;SDS011;63122;52.424;13.458;2022-09-13T08:32:48;11.90;;;10.35;;
41887;SDS011;63122;52.424;13.458;2022-09-13T08:35:20;14.40;;;10.43;;
41887;SDS011;63122;52.424;13.458;2022-09-13T08:37:52;13.55;;;9.80;;
41887;SDS011;63122;52.424;13.458;2022-09-13T08:40:23;13.48;;;10.65;;
41887;SDS011;63122;52.424;13.458;2022-09-13T08:42:57;12.20;;;10.48;;
41887;SDS011;63122;52.424;13.458;2022-09-13T08:45:35;14.63;;;10.02;;
41887;SDS011;63122;52.424;13.458;2022-09-13T08:48:09;18.17;;;12.05;;
41887;SDS011;63122;52.424;13.458;2022-09-13T08:50:43;18.75;;;11.35;;
41887;SDS011;63122;52.424;13.458;2022-09-13T08:53:18;12.45;;;10.40;;
41887;SDS011;63122;52.424;13.458;2022-09-13T08:55:54;15.63;;;10.98;;
41887;SDS011;63122;52.424;13.458;2022-09-13T08:58:40;16.80;;;10.32;;
41887;SDS011;63122;52.424;13.458;2022-09-13T09:12:40;16.05;;;10.70;;
41887;SDS011;63122;52.424;13.458;2022-09-13T09:15:15;13.85;;;10.65;;
41887;SDS011;63122;52.424;13.458;2022-09-13T09:17:50;15.65;;;10.30;;
41887;SDS011;63122;52.424;13.458;2022-09-13T09:20:26;14.07;;;11.38;;
41887;SDS011;63122;52.424;13.458;2022-09-13T09:23:01;14.18;;;9.50;;
41887;SDS011;63122;52.424;13.458;2022-09-13T09:25:35;16.35;;;10.13;;
41887;SDS011;63122;52.424;13.458;2022-09-13T09:34:54;14.45;;;10.07;;
41887;SDS011;63122;52.424;13.458;2022-09-13T09:38:00;18.77;;;10.10;;
41887;SDS011;63122;52.424;13.458;2022-09-13T09:40:53;12.90;;;10.05;;
41887;SDS011;63122;52.424;13.458;2022-09-13T09:43:24;19.23;;;13.15;;
41887;SDS011;63122;52.424;13.458;2022-09-13T09:46:01;12.60;;;10.45;;
41887;SDS011;63122;52.424;13.458;2022-09-13T09:48:36;17.60;;;10.27;;
41887;SDS011;63122;52.424;13.458;2022-09-13T09:51:12;13.82;;;10.18;;
41887;SDS011;63122;52.424;13.458;2022-09-13T09:53:47;10.57;;;9.32;;
41887;SDS011;63122;52.424;13.458;2022-09-13T09:56:29;11.82;;;9.27;;
41887;SDS011;63122;52.424;13.458;2022-09-13T09:59:02;13.60;;;9.85;;
41887;SDS011;63122;52.424;13.458;2022-09-13T10:01:34;15.27;;;9.77;;
41887;SDS011;63122;52.424;13.458;2022-09-13T10:04:58;13.55;;;9.27;;
41887;SDS011;63122;52.424;13.458;2022-09-13T10:11:51;11.75;;;8.70;;
41887;SDS011;63122;52.424;13.458;2022-09-13T10:14:27;11.68;;;8.13;;
41887;SDS011;63122;52.424;13.458;2022-09-13T10:17:12;14.70;;;8.57;;
41887;SDS011;63122;52.424;13.458;2022-09-13T10:19:51;11.82;;;8.68;;
41887;SDS011;63122;52.424;13.458;2022-09-13T10:22:24;12.18;;;8.85;;
41887;SDS011;63122;52.424;13.458;2022-09-13T10:25:06;12.95;;;8.45;;
41887;SDS011;63122;52.424;13.458;2022-09-13T10:27:50;13.23;;;8.65;;
41887;SDS011;63122;52.424;13.458;2022-09-13T10:30:31;12.43;;;8.05;;
41887;SDS011;63122;52.424;13.458;2022-09-13T10:33:05;10.15;;;8.07;;
41887;SDS011;63122;52.424;13.458;2022-09-13T10:35:49;14.18;;;8.55;;
41887;SDS011;63122;52.424;13.458;2022-09-13T10:38:24;13.68;;;9.00;;
41887;SDS011;63122;52.424;13.458;2022-09-13T10:40:58;12.88;;;9.60;;
41887;SDS011;63122;52.424;13.458;2022-09-13T10:43:35;10.07;;;7.95;;
41887;SDS011;63122;52.424;13.458;2022-09-13T10:46:07;11.80;;;8.85;;
41887;SDS011;63122;52.424;13.458;2022-09-13T10:48:44;13.20;;;8.95;;
41887;SDS011;63122;52.424;13.458;2022-09-13T10:51:29;11.88;;;8.48;;
41887;SDS011;63122;52.424;13.458;2022-09-13T10:56:52;11.20;;;8.25;;
41887;SDS011;63122;52.424;13.458;2022-09-13T10:59:25;11.10;;;7.68;;
41887;SDS011;63122;52.424;13.458;2022-09-13T11:02:01;10.00;;;7.57;;
41887;SDS011;63122;52.424;13.458;2022-09-13T11:05:08;15.57;;;8.75;;
41887;SDS011;63122;52.424;13.458;2022-09-13T11:08:01;11.25;;;7.88;;
41887;SDS011;63122;52.424;13.458;2022-09-13T11:10:53;11.40;;;7.40;;
41887;SDS011;63122;52.424;13.458;2022-09-13T11:13:38;11.75;;;8.80;;
41887;SDS011;63122;52.424;13.458;2022-09-13T11:16:27;16.35;;;7.72;;
41887;SDS011;63122;52.424;13.458;2022-09-13T11:19:15;9.50;;;7.03;;
41887;SDS011;63122;52.424;13.458;2022-09-13T11:22:01;10.82;;;8.40;;
41887;SDS011;63122;52.424;13.458;2022-09-13T11:24:53;13.45;;;8.50;;
41887;SDS011;63122;52.424;13.458;2022-09-13T11:27:34;12.48;;;9.63;;
41887;SDS011;63122;52.424;13.458;2022-09-13T11:30:13;14.25;;;9.20;;
41887;SDS011;63122;52.424;13.458;2022-09-13T11:33:02;13.50;;;9.88;;
41887;SDS011;63122;52.424;13.458;2022-09-13T11:35:56;14.85;;;10.45;;
41887;SDS011;63122;52.424;13.458;2022-09-13T11:38:42;11.50;;;9.93;;
41887;SDS011;63122;52.424;13.458;2022-09-13T11:41:23;13.52;;;9.95;;
41887;SDS011;63122;52.424;13.458;2022-09-13T11:44:14;13.95;;;9.60;;
41887;SDS011;63122;52.424;13.458;2022-09-13T11:47:00;16.20;;;10.50;;
41887;SDS011;63122;52.424;13.458;2022-09-13T11:49:50;14.32;;;9.95;;
41887;SDS011;63122;52.424;13.458;2022-09-13T11:52:32;15.18;;;10.80;;
41887;SDS011;63122;52.424;13.458;2022-09-13T11:55:12;17.50;;;10.45;;
41887;SDS011;63122;52.424;13.458;2022-09-13T11:57:46;14.02;;;9.82;;
41887;SDS011;63122;52.424;13.458;2022-09-13T12:00:21;14.40;;;10.70;;
41887;SDS011;63122;52.424;13.458;2022-09-13T12:03:01;15.25;;;10.05;;
41887;SDS011;63122;52.424;13.458;2022-09-13T12:05:40;14.63;;;10.68;;
41887;SDS011;63122;52.424;13.458;2022-09-13T12:08:16;15.63;;;10.80;;
41887;SDS011;63122;52.424;13.458;2022-09-13T12:10:49;14.25;;;10.70;;
41887;SDS011;63122;52.424;13.458;2022-09-13T12:13:22;14.68;;;10.77;;
41887;SDS011;63122;52.424;13.458;2022-09-13T12:15:56;13.40;;;9.25;;
41887;SDS011;63122;52.424;13.458;2022-09-13T12:18:31;13.05;;;10.35;;
41887;SDS011;63122;52.424;13.458;2022-09-13T12:21:08;12.73;;;9.52;;
41887;SDS011;63122;52.424;13.458;2022-09-13T12:23:41;15.48;;;10.25;;
41887;SDS011;63122;52.424;13.458;2022-09-13T12:26:18;15.52;;;10.93;;
41887;SDS011;63122;52.424;13.458;2022-09-13T12:28:52;12.35;;;9.77;;
41887;SDS011;63122;52.424;13.458;2022-09-13T12:31:26;13.45;;;10.40;;
41887;SDS011;63122;52.424;13.458;2022-09-13T12:33:58;14.27;;;10.65;;
41887;SDS011;63122;52.424;13.458;2022-09-13T12:36:41;12.88;;;10.00;;
41887;SDS011;63122;52.424;13.458;2022-09-13T12:39:53;15.73;;;10.77;;
41887;SDS011;63122;52.424;13.458;2022-09-13T12:42:47;16.13;;;11.20;;
41887;SDS011;63122;52.424;13.458;2022-09-13T12:45:40;21.40;;;11.43;;
41887;SDS011;63122;52.424;13.458;2022-09-13T12:51:43;15.02;;;10.23;;
41887;SDS011;63122;52.424;13.458;2022-09-13T12:57:33;19.65;;;10.57;;
41887;SDS011;63122;52.424;13.458;2022-09-13T13:00:19;17.60;;;11.02;;
41887;SDS011;63122;52.424;13.458;2022-09-13T13:09:37;22.23;;;11.13;;
41887;SDS011;63122;52.424;13.458;2022-09-13T13:12:11;17.20;;;10.63;;
41887;SDS011;63122;52.424;13.458;2022-09-13T13:14:56;21.30;;;11.27;;
41887;SDS011;63122;52.424;13.458;2022-09-13T13:17:35;14.80;;;11.27;;
41887;SDS011;63122;52.424;13.458;2022-09-13T13:23:19;17.90;;;10.63;;
41887;SDS011;63122;52.424;13.458;2022-09-13T13:26:05;13.90;;;10.60;;
41887;SDS011;63122;52.424;13.458;2022-09-13T13:32:23;16.05;;;10.80;;
41887;SDS011;63122;52.424;13.458;2022-09-13T13:35:30;15.45;;;11.65;;
41887;SDS011;63122;52.424;13.458;2022-09-13T13:38:16;15.07;;;11.57;;
41887;SDS011;63122;52.424;13.458;2022-09-13T13:48:32;18.98;;;12.15;;
41887;SDS011;63122;52.424;13.458;2022-09-13T13:51:14;21.88;;;12.65;;
41887;SDS011;63122;52.424;13.458;2022-09-13T13:53:48;19.55;;;13.35;;
41887;SDS011;63122;52.424;13.458;2022-09-13T13:56:27;20.92;;;13.73;;
41887;SDS011;63122;52.424;13.458;2022-09-13T13:59:22;23.98;;;12.90;;
41887;SDS011;63122;52.424;13.458;2022-09-13T14:02:10;17.88;;;13.35;;
41887;SDS011;63122;52.424;13.458;2022-09-13T14:07:52;18.48;;;13.30;;
41887;SDS011;63122;52.424;13.458;2022-09-13T14:10:43;19.90;;;13.40;;
41887;SDS011;63122;52.424;13.458;2022-09-13T14:13:34;19.20;;;13.07;;
41887;SDS011;63122;52.424;13.458;2022-09-13T14:16:16;16.85;;;12.48;;
41887;SDS011;63122;52.424;13.458;2022-09-13T14:22:14;17.60;;;14.15;;
41887;SDS011;63122;52.424;13.458;2022-09-13T14:24:50;16.88;;;12.82;;
41887;SDS011;63122;52.424;13.458;2022-09-13T14:27:22;15.07;;;12.05;;
41887;SDS011;63122;52.424;13.458;2022-09-13T14:29:55;16.40;;;10.65;;
41887;SDS011;63122;52.424;13.458;2022-09-13T14:32:30;16.80;;;11.32;;
41887;SDS011;63122;52.424;13.458;2022-09-13T14:35:21;14.30;;;10.13;;
41887;SDS011;63122;52.424;13.458;2022-09-13T14:38:09;14.20;;;10.88;;
41887;SDS011;63122;52.424;13.458;2022-09-13T14:40:40;13.10;;;10.68;;
41887;SDS011;63122;52.424;13.458;2022-09-13T14:43:13;13.48;;;10.75;;
41887;SDS011;63122;52.424;13.458;2022-09-13T14:45:45;17.85;;;11.63;;
41887;SDS011;63122;52.424;13.458;2022-09-13T14:48:21;18.20;;;10.50;;
41887;SDS011;63122;52.424;13.458;2022-09-13T14:50:55;14.73;;;11.32;;
41887;SDS011;63122;52.424;13.458;2022-09-13T14:53:32;15.40;;;10.70;;
41887;SDS011;63122;52.424;13.458;2022-09-13T14:56:04;13.52;;;10.35;;
41887;SDS011;63122;52.424;13.458;2022-09-13T14:58:44;13.98;;;10.02;;
41887;SDS011;63122;52.424;13.458;2022-09-13T15:01:17;16.58;;;10.93;;
41887;SDS011;63122;52.424;13.458;2022-09-13T15:03:50;16.98;;;11.85;;
41887;SDS011;63122;52.424;13.458;2022-09-13T15:06:21;15.60;;;10.05;;
41887;SDS011;63122;52.424;13.458;2022-09-13T15:08:57;13.80;;;9.23;;
41887;SDS011;63122;52.424;13.458;2022-09-13T15:15:13;14.13;;;9.60;;
41887;SDS011;63122;52.424;13.458;2022-09-13T15:17:53;19.17;;;9.35;;
41887;SDS011;63122;52.424;13.458;2022-09-13T15:20:25;11.43;;;9.00;;
41887;SDS011;63122;52.424;13.458;2022-09-13T15:22:57;13.25;;;10.82;;
41887;SDS011;63122;52.424;13.458;2022-09-13T15:25:36;12.10;;;8.75;;
41887;SDS011;63122;52.424;13.458;2022-09-13T15:28:24;11.18;;;8.13;;
41887;SDS011;63122;52.424;13.458;2022-09-13T15:30:56;11.88;;;7.22;;
41887;SDS011;63122;52.424;13.458;2022-09-13T15:33:29;13.35;;;7.80;;
41887;SDS011;63122;52.424;13.458;2022-09-13T15:36:13;10.50;;;7.55;;
41887;SDS011;63122;52.424;13.458;2022-09-13T15:38:56;9.57;;;6.75;;
41887;SDS011;63122;52.424;13.458;2022-09-13T15:41:32;9.48;;;6.40;;
41887;SDS011;63122;52.424;13.458;2022-09-13T15:47:45;12.75;;;6.30;;
41887;SDS011;63122;52.424;13.458;2022-09-13T15:50:20;13.20;;;6.43;;
41887;SDS011;63122;52.424;13.458;2022-09-13T15:52:52;8.93;;;5.60;;
41887;SDS011;63122;52.424;13.458;2022-09-13T15:55:23;9.93;;;5.60;;
41887;SDS011;63122;52.424;13.458;2022-09-13T15:57:57;7.20;;;4.80;;
41887;SDS011;63122;52.424;13.458;2022-09-13T16:00:27;9.90;;;5.20;;
41887;SDS011;63122;52.424;13.458;2022-09-13T16:02:57;6.93;;;4.47;;
41887;SDS011;63122;52.424;13.458;2022-09-13T16:05:27;6.65;;;4.80;;
41887;SDS011;63122;52.424;13.458;2022-09-13T16:07:57;4.50;;;4.10;;
41887;SDS011;63122;52.424;13.458;2022-09-13T16:10:27;9.05;;;4.35;;
41887;SDS011;63122;52.424;13.458;2022-09-13T16:13:00;6.03;;;4.60;;
41887;SDS011;63122;52.424;13.458;2022-09-13T16:15:30;7.57;;;4.32;;
41887;SDS011;63122;52.424;13.458;2022-09-13T16:18:00;5.97;;;4.03;;
41887;SDS011;63122;52.424;13.458;2022-09-13T16:20:30;7.20;;;4.25;;
41887;SDS011;63122;52.424;13.458;2022-09-13T16:23:00;6.90;;;4.93;;
41887;SDS011;63122;52.424;13.458;2022-09-13T16:25:30;7.38;;;4.32;;
41887;SDS011;63122;52.424;13.458;2022-09-13T16:28:03;4.53;;;3.70;;
41887;SDS011;63122;52.424;13.458;2022-09-13T16:30:34;10.15;;;3.97;;
41887;SDS011;63122;52.424;13.458;2022-09-13T16:33:04;6.07;;;4.07;;
41887;SDS011;63122;52.424;13.458;2022-09-13T16:35:34;5.53;;;4.63;;
41887;SDS011;63122;52.424;13.458;2022-09-13T16:38:04;9.27;;;4.40;;
41887;SDS011;63122;52.424;13.458;2022-09-13T16:40:34;6.22;;;4.30;;
41887;SDS011;63122;52.424;13.458;2022-09-13T16:43:06;7.28;;;4.45;;
41887;SDS011;63122;52.424;13.458;2022-09-13T16:45:37;6.53;;;4.18;;
41887;SDS011;63122;52.424;13.458;2022-09-13T16:48:07;8.13;;;4.07;;
41887;SDS011;63122;52.424;13.458;2022-09-13T16:50:38;5.28;;;4.40;;